Aérodrome :
LOGIN :

S'inscrire | Disclaimer

   EN    FR    IT 

 










Légende :    VFR   VFR Marginal   IFR   IFR Intensif   IFR Très Intensif
Visi : 
Plafond : 
>= 8 km
>= 3000ft
5 à 8 km
1000 à 3000 ft
1500m à 5 km
500 à 1000 ft
800 à 1500m
200 à 500 ft
< 800m
< 200 ft
Symboles :   Orages  Brouillard  Fortes neiges  Fortes précipitations  Vent > 20 kt
SIGMETs :   Divers  Orages  Givrage  Turbulence  Onde Orograph.  Cendres Volcan.







- Altitude de l'aérodrome : 138 ft
- Code IATA : BIO


LEBB - Bilbao

DERNIER METAR :
  • 231630Z 30004KT CAVOK 19/11 Q1026 NOSIG

METARs EXPIRÉS :
  • 231600Z 30006KT CAVOK 19/11 Q1026 NOSIG
  • 231530Z 32007KT CAVOK 20/11 Q1026 NOSIG
  • 231500Z 31005KT CAVOK 21/11 Q1026 NOSIG
  • 231430Z 29007KT 260V320 CAVOK 21/11 Q1026 NOSIG
  • 231400Z 34004KT 290V040 CAVOK 21/11 Q1026 NOSIG
  • 231330Z 02003KT 330V080 CAVOK 21/11 Q1026 NOSIG

TAF TAF LEBB
Valide du 23 à 12h jusqu'au 24 à 12h UTC


231100Z 2312/2412 VRB04KT CAVOK TX21/2314Z TN09/2406Z
PROB40
TEMPO 2312/2318 01010KT
Pas de NOTAMs connus pour ce terrain.



MET'MAP, la Météo Aéronautique d'un coup d'oeil ! - Copyright ORBIFLY Décembre 2007 - Disclaimer

ORBIFLY MET'MAP TEAM :

Programmation & Développement : Alexandra Zaïnal
Conception & Développement : Baudouin d'Aumeries
Co-Programmation & Développement : Marc-Olivier Méhu
Soutien technique & logistique : Manuel Goepfert

Contact : metmap@orbifly.com




SOURCES & CREDITS :

   NOAA